createdAt,value
2018-01-12T00:00:14.661Z,11.1
2018-01-12T00:00:55.200Z,11.03
2018-01-12T00:01:35.743Z,11.06
2018-01-12T00:02:16.287Z,10.99
2018-01-12T00:02:56.837Z,10.81
2018-01-12T00:03:37.466Z,10.74
2018-01-12T00:04:18.011Z,10.82
2018-01-12T00:04:58.542Z,10.79
2018-01-12T00:05:39.064Z,10.81
2018-01-12T00:06:19.608Z,10.85
2018-01-12T00:07:00.139Z,10.86
2018-01-12T00:07:40.671Z,10.84
2018-01-12T00:08:21.298Z,10.74
2018-01-12T00:09:01.870Z,10.7
2018-01-12T00:09:42.451Z,10.78
2018-01-12T00:10:23.015Z,10.78
2018-01-12T00:11:03.553Z,10.64
2018-01-12T00:11:44.171Z,10.64
2018-01-12T00:12:24.694Z,10.84
2018-01-12T00:13:05.211Z,10.63
2018-01-12T00:13:45.802Z,10.63
2018-01-12T00:14:26.342Z,10.71
2018-01-12T00:15:06.899Z,10.67
2018-01-12T00:15:47.523Z,10.63
2018-01-12T00:16:32.476Z,10.48
2018-01-12T00:17:12.167Z,10.59
2018-01-12T00:17:52.873Z,10.66
2018-01-12T00:18:33.194Z,10.82
2018-01-12T00:19:13.778Z,10.78
2018-01-12T00:19:54.335Z,10.79
2018-01-12T00:20:34.833Z,10.67
2018-01-12T00:21:15.420Z,10.78
2018-01-12T00:21:55.946Z,10.74
2018-01-12T00:22:36.539Z,10.88
2018-01-12T00:23:17.486Z,10.86
2018-01-12T00:23:57.927Z,10.82
2018-01-12T00:24:38.464Z,10.82
2018-01-12T00:25:19.000Z,10.82
2018-01-12T00:25:59.539Z,10.78
2018-01-12T00:26:40.041Z,10.86
2018-01-12T00:27:20.651Z,10.88
2018-01-12T00:28:01.225Z,10.85
2018-01-12T00:28:41.772Z,10.96
2018-01-12T00:29:22.326Z,10.73
2018-01-12T00:30:02.842Z,10.73
2018-01-12T00:30:43.360Z,10.92
2018-01-12T00:31:23.970Z,10.82
2018-01-12T00:32:04.491Z,10.85
2018-01-12T00:32:45.042Z,10.86
2018-01-12T00:33:25.548Z,10.94
2018-01-12T00:34:06.014Z,10.96
2018-01-12T00:34:46.653Z,10.94
2018-01-12T00:35:27.145Z,10.88
2018-01-12T00:36:07.697Z,10.99
2018-01-12T00:36:48.259Z,10.85
2018-01-12T00:37:28.783Z,10.78
2018-01-12T00:38:09.376Z,10.79
2018-01-12T00:38:49.949Z,10.85
2018-01-12T00:39:30.485Z,10.76
2018-01-12T00:40:11.036Z,10.86
2018-01-12T00:40:51.637Z,10.76
2018-01-12T00:41:32.169Z,10.76
2018-01-12T00:42:12.743Z,10.79
2018-01-12T00:42:53.271Z,10.85
2018-01-12T00:43:33.735Z,10.85
2018-01-12T00:44:14.343Z,10.86
2018-01-12T00:44:54.901Z,10.94
2018-01-12T00:45:35.404Z,10.99
2018-01-12T00:46:15.962Z,10.91
2018-01-12T00:46:56.477Z,10.96
2018-01-12T00:47:37.043Z,10.96
2018-01-12T00:48:17.645Z,10.91
2018-01-12T00:48:58.209Z,10.85
2018-01-12T00:49:38.715Z,10.88
2018-01-12T00:50:19.265Z,10.85
2018-01-12T00:50:59.868Z,10.81
2018-01-12T00:51:40.380Z,10.66
2018-01-12T00:52:20.918Z,10.79
2018-01-12T00:53:01.380Z,10.67
2018-01-12T00:53:41.965Z,10.79
2018-01-12T00:54:22.520Z,10.82
2018-01-12T00:55:03.022Z,10.79
2018-01-12T00:55:43.533Z,10.73
2018-01-12T00:56:24.064Z,10.82
2018-01-12T00:57:04.660Z,10.86
2018-01-12T00:57:45.216Z,10.79
2018-01-12T00:58:25.758Z,10.84
2018-01-12T00:59:06.358Z,10.81
2018-01-12T00:59:46.830Z,10.73
2018-01-12T01:00:27.389Z,10.63
2018-01-12T01:01:07.928Z,10.7
2018-01-12T01:01:48.496Z,10.61
2018-01-12T01:02:29.011Z,10.6
2018-01-12T01:03:09.505Z,10.61
2018-01-12T01:03:50.080Z,10.67
2018-01-12T01:04:30.621Z,10.78
2018-01-12T01:05:11.142Z,10.74
2018-01-12T01:05:51.681Z,10.79
2018-01-12T01:06:32.184Z,10.78
2018-01-12T01:07:12.710Z,10.73
2018-01-12T01:07:53.271Z,10.7
2018-01-12T01:08:33.891Z,10.71
2018-01-12T01:09:14.316Z,10.78
2018-01-12T01:09:54.912Z,10.7
2018-01-12T01:10:35.437Z,10.7
2018-01-12T01:11:15.991Z,10.81
2018-01-12T01:11:56.574Z,10.64
2018-01-12T01:12:37.092Z,10.7
2018-01-12T01:13:17.626Z,10.51
2018-01-12T01:13:58.098Z,10.48
2018-01-12T01:14:38.709Z,10.52
2018-01-12T01:15:19.303Z,10.51
2018-01-12T01:15:59.760Z,10.48
2018-01-12T01:16:40.432Z,10.61
2018-01-12T01:17:20.947Z,10.61
2018-01-12T01:18:01.483Z,10.48
2018-01-12T01:18:41.981Z,10.63
2018-01-12T01:19:22.553Z,10.73
2018-01-12T01:20:03.065Z,10.61
2018-01-12T01:20:43.639Z,10.64
2018-01-12T01:21:24.163Z,10.53
2018-01-12T01:22:04.696Z,10.68
2018-01-12T01:22:45.330Z,10.66
2018-01-12T01:23:25.754Z,10.63
2018-01-12T01:24:06.354Z,10.68
2018-01-12T01:24:46.912Z,10.76
2018-01-12T01:25:27.477Z,10.76
2018-01-12T01:26:08.097Z,10.85
2018-01-12T01:26:48.585Z,10.85
2018-01-12T01:27:29.167Z,10.91
2018-01-12T01:28:09.744Z,10.86
2018-01-12T01:28:50.309Z,10.78
2018-01-12T01:29:30.865Z,10.79
2018-01-12T01:30:11.402Z,10.84
2018-01-12T01:30:51.977Z,10.63
2018-01-12T01:31:32.556Z,10.67
2018-01-12T01:32:13.157Z,10.68
2018-01-12T01:32:53.681Z,10.73
2018-01-12T01:33:34.216Z,10.63
2018-01-12T01:34:14.923Z,10.63
2018-01-12T01:34:55.463Z,10.61
2018-01-12T01:35:35.999Z,10.68
2018-01-12T01:36:16.573Z,10.79
2018-01-12T01:36:57.075Z,10.68
2018-01-12T01:37:37.626Z,10.86
2018-01-12T01:38:18.104Z,10.78
2018-01-12T01:38:58.634Z,10.81
2018-01-12T01:39:39.174Z,10.78
2018-01-12T01:40:19.869Z,10.6
2018-01-12T01:41:00.336Z,10.59
2018-01-12T01:41:40.938Z,10.71
2018-01-12T01:42:21.458Z,10.78
2018-01-12T01:43:02.039Z,10.56
2018-01-12T01:43:42.568Z,10.64
2018-01-12T01:44:23.107Z,10.68
2018-01-12T01:45:03.604Z,10.66
2018-01-12T01:45:44.202Z,10.56
2018-01-12T01:46:24.796Z,10.53
2018-01-12T01:47:05.440Z,10.66
2018-01-12T01:47:45.972Z,10.66
2018-01-12T01:48:26.510Z,10.63
2018-01-12T01:49:07.115Z,10.52
2018-01-12T01:49:47.658Z,10.61
2018-01-12T01:50:28.210Z,10.6
2018-01-12T01:51:08.815Z,10.53
2018-01-12T01:51:49.310Z,10.6
2018-01-12T01:52:29.865Z,10.52
2018-01-12T01:53:10.399Z,10.59
2018-01-12T01:53:50.924Z,10.52
2018-01-12T01:54:31.486Z,10.59
2018-01-12T01:55:12.058Z,10.59
2018-01-12T01:55:52.590Z,10.56
2018-01-12T01:56:33.065Z,10.63
2018-01-12T01:57:13.655Z,10.6
2018-01-12T01:57:54.228Z,10.51
2018-01-12T01:58:34.791Z,10.38
2018-01-12T01:59:15.401Z,10.48
2018-01-12T01:59:55.911Z,10.4
2018-01-12T02:00:36.448Z,10.45
2018-01-12T02:01:17.005Z,10.4
2018-01-12T02:01:57.570Z,10.36
2018-01-12T02:02:38.098Z,10.33
2018-01-12T02:03:18.614Z,10.52
2018-01-12T02:03:59.135Z,10.45
2018-01-12T02:04:39.664Z,10.38
2018-01-12T02:05:20.248Z,10.33
2018-01-12T02:06:00.785Z,10.32
2018-01-12T02:06:41.319Z,10.4
2018-01-12T02:07:21.830Z,10.41
2018-01-12T02:08:02.392Z,10.56
2018-01-12T02:08:42.911Z,10.52
2018-01-12T02:09:23.414Z,10.53
2018-01-12T02:10:03.988Z,10.55
2018-01-12T02:10:44.508Z,10.51
2018-01-12T02:11:25.139Z,10.42
2018-01-12T02:12:05.642Z,10.4
2018-01-12T02:12:46.169Z,10.32
2018-01-12T02:13:27.414Z,10.4
2018-01-12T02:14:07.311Z,10.55
2018-01-12T02:14:47.832Z,10.55
2018-01-12T02:15:28.443Z,10.51
2018-01-12T02:16:08.923Z,10.23
2018-01-12T02:16:49.477Z,10.3
2018-01-12T02:17:29.972Z,10.36
2018-01-12T02:18:10.516Z,10.34
2018-01-12T02:18:51.114Z,10.3
2018-01-12T02:19:31.578Z,10.29
2018-01-12T02:20:12.215Z,10.26
2018-01-12T02:20:52.690Z,10.27
2018-01-12T02:21:33.228Z,10.29
2018-01-12T02:22:13.786Z,10.26
2018-01-12T02:22:54.260Z,10.07
2018-01-12T02:23:34.827Z,10.01
2018-01-12T02:24:15.371Z,9.97
2018-01-12T02:24:55.878Z,10.02
2018-01-12T02:25:36.354Z,9.99
2018-01-12T02:26:16.968Z,10.07
2018-01-12T02:26:57.684Z,10.01
2018-01-12T02:27:38.279Z,10.2
2018-01-12T02:28:18.702Z,10.15
2018-01-12T02:28:59.331Z,10.15
2018-01-12T02:29:39.839Z,10.23
2018-01-12T02:30:20.348Z,10.15
2018-01-12T02:31:00.935Z,10.15
2018-01-12T02:31:41.482Z,10.18
2018-01-12T02:32:22.015Z,10.23
2018-01-12T02:33:02.580Z,10.2
2018-01-12T02:33:43.125Z,10.3
2018-01-12T02:34:23.668Z,10.08
2018-01-12T02:35:04.178Z,10.15
2018-01-12T02:35:44.771Z,10.22
2018-01-12T02:36:25.315Z,10.14
2018-01-12T02:37:05.794Z,10.11
2018-01-12T02:37:46.367Z,10.17
2018-01-12T02:38:26.925Z,10.29
2018-01-12T02:39:07.397Z,10.23
2018-01-12T02:39:48.067Z,10.25
2018-01-12T02:40:28.679Z,10.26
2018-01-12T02:41:09.221Z,10.29
2018-01-12T02:41:49.736Z,10.26
2018-01-12T02:42:30.300Z,10.27
2018-01-12T02:43:10.845Z,10.27
2018-01-12T02:43:51.331Z,10.4
2018-01-12T02:44:31.884Z,10.36
2018-01-12T02:45:12.425Z,10.18
2018-01-12T02:45:52.941Z,10.25
2018-01-12T02:46:33.498Z,10.25
2018-01-12T02:47:14.048Z,10.22
2018-01-12T02:47:54.616Z,10.2
2018-01-12T02:48:35.167Z,10.17
2018-01-12T02:49:15.742Z,10.29
2018-01-12T02:49:56.276Z,10.27
2018-01-12T02:50:36.845Z,10.25
2018-01-12T02:51:17.390Z,10.2
2018-01-12T02:51:57.945Z,10.11
2018-01-12T02:52:38.402Z,10.04
2018-01-12T02:53:18.942Z,10.04
2018-01-12T02:53:59.568Z,10.22
2018-01-12T02:54:40.061Z,10.11
2018-01-12T02:55:20.597Z,10.11
2018-01-12T02:56:01.159Z,10.22
2018-01-12T02:56:41.673Z,10.17
2018-01-12T02:57:22.230Z,10.17
2018-01-12T02:58:02.772Z,10.08
2018-01-12T02:58:43.352Z,10.12
2018-01-12T02:59:23.846Z,10.04
2018-01-12T03:00:04.364Z,10.05
2018-01-12T03:00:44.868Z,10.07
2018-01-12T03:01:25.418Z,10.09
2018-01-12T03:02:05.975Z,10.17
2018-01-12T03:02:46.506Z,10.17
2018-01-12T03:03:27.925Z,10.11
2018-01-12T03:04:07.555Z,10.09
2018-01-12T03:04:48.088Z,10.07
2018-01-12T03:05:28.649Z,9.76
2018-01-12T03:06:09.128Z,9.9
2018-01-12T03:06:49.693Z,9.91
2018-01-12T03:07:30.191Z,9.93
2018-01-12T03:08:10.778Z,9.94
2018-01-12T03:08:51.930Z,9.99
2018-01-12T03:09:31.814Z,9.9
2018-01-12T03:10:12.374Z,9.97
2018-01-12T03:10:52.921Z,9.96
2018-01-12T03:11:33.462Z,9.93
2018-01-12T03:12:14.026Z,9.96
2018-01-12T03:12:54.575Z,10.08
2018-01-12T03:13:35.156Z,9.99
2018-01-12T03:14:15.783Z,10.08
2018-01-12T03:14:56.386Z,9.97
2018-01-12T03:15:36.890Z,10.07
2018-01-12T03:16:17.474Z,10.12
2018-01-12T03:16:57.996Z,10.01
2018-01-12T03:17:38.609Z,10.02
2018-01-12T03:18:19.077Z,9.94
2018-01-12T03:18:59.622Z,9.87
2018-01-12T03:19:40.191Z,9.9
2018-01-12T03:20:20.752Z,9.89
2018-01-12T03:21:01.277Z,9.94
2018-01-12T03:21:41.748Z,9.99
2018-01-12T03:22:22.298Z,10.01
2018-01-12T03:23:02.835Z,10.01
2018-01-12T03:23:43.410Z,9.97
2018-01-12T03:24:23.917Z,9.97
2018-01-12T03:25:04.448Z,9.9
2018-01-12T03:25:44.963Z,10.01
2018-01-12T03:26:25.476Z,9.93
2018-01-12T03:27:06.037Z,9.97
2018-01-12T03:27:46.534Z,9.97
2018-01-12T03:28:27.691Z,9.89
2018-01-12T03:29:08.211Z,9.86
2018-01-12T03:29:48.816Z,9.87
2018-01-12T03:30:29.293Z,9.94
2018-01-12T03:31:09.855Z,9.84
2018-01-12T03:31:50.387Z,9.75
2018-01-12T03:32:30.931Z,9.81
2018-01-12T03:33:11.435Z,9.79
2018-01-12T03:33:51.958Z,9.96
2018-01-12T03:34:32.594Z,9.9
2018-01-12T03:35:13.098Z,9.81
2018-01-12T03:35:53.671Z,9.76
2018-01-12T03:36:34.206Z,9.74
2018-01-12T03:37:14.732Z,9.78
2018-01-12T03:37:55.256Z,9.71
2018-01-12T03:38:35.793Z,9.78
2018-01-12T03:39:16.355Z,9.81
2018-01-12T03:39:56.916Z,9.71
2018-01-12T03:40:37.442Z,9.84
2018-01-12T03:41:18.016Z,9.83
2018-01-12T03:41:58.498Z,9.79
2018-01-12T03:42:39.095Z,9.87
2018-01-12T03:43:19.586Z,9.87
2018-01-12T03:44:00.129Z,9.81
2018-01-12T03:44:40.744Z,9.81
2018-01-12T03:45:21.206Z,9.96
2018-01-12T03:46:01.754Z,9.89
2018-01-12T03:46:42.281Z,9.91
2018-01-12T03:47:22.788Z,9.84
2018-01-12T03:48:03.371Z,9.94
2018-01-12T03:48:43.854Z,9.94
2018-01-12T03:49:24.445Z,9.96
2018-01-12T03:50:04.975Z,9.83
2018-01-12T03:50:45.557Z,9.79
2018-01-12T03:51:26.135Z,9.93
2018-01-12T03:52:06.669Z,9.89
2018-01-12T03:52:47.196Z,9.87
2018-01-12T03:53:27.633Z,9.79
2018-01-12T03:54:08.178Z,9.78
2018-01-12T03:54:48.781Z,9.89
2018-01-12T03:55:29.317Z,9.86
2018-01-12T03:56:09.846Z,9.93
2018-01-12T03:56:50.455Z,9.84
2018-01-12T03:57:31.004Z,9.81
2018-01-12T03:58:11.496Z,9.76
2018-01-12T03:58:52.032Z,9.75
2018-01-12T03:59:32.602Z,9.84
2018-01-12T04:00:13.187Z,9.84
2018-01-12T04:00:53.755Z,9.71
2018-01-12T04:01:34.275Z,9.71
2018-01-12T04:02:14.744Z,9.83
2018-01-12T04:02:55.318Z,9.81
2018-01-12T04:03:35.857Z,9.81
2018-01-12T04:04:16.402Z,9.83
2018-01-12T04:04:56.964Z,9.86
2018-01-12T04:05:37.462Z,9.9
2018-01-12T04:06:17.980Z,9.76
2018-01-12T04:06:58.543Z,9.97
2018-01-12T04:07:39.153Z,9.86
2018-01-12T04:08:19.611Z,9.78
2018-01-12T04:09:00.180Z,9.68
2018-01-12T04:09:40.746Z,9.79
2018-01-12T04:10:21.254Z,9.74
2018-01-12T04:11:01.797Z,9.87
2018-01-12T04:11:42.314Z,9.72
2018-01-12T04:12:22.863Z,9.74
2018-01-12T04:13:03.458Z,9.71
2018-01-12T04:13:44.010Z,9.78
2018-01-12T04:14:24.591Z,9.71
2018-01-12T04:15:05.143Z,9.78
2018-01-12T04:15:45.766Z,9.75
2018-01-12T04:16:26.434Z,9.71
2018-01-12T04:17:06.976Z,9.68
2018-01-12T04:17:47.511Z,9.61
2018-01-12T04:18:28.056Z,9.78
2018-01-12T04:19:08.548Z,9.69
2018-01-12T04:19:49.185Z,9.68
2018-01-12T04:20:29.654Z,9.72
2018-01-12T04:21:10.209Z,9.71
2018-01-12T04:21:50.724Z,9.79
2018-01-12T04:22:31.384Z,9.84
2018-01-12T04:23:11.846Z,9.69
2018-01-12T04:23:52.400Z,9.76
2018-01-12T04:24:33.009Z,9.75
2018-01-12T04:25:13.531Z,9.69
2018-01-12T04:25:54.139Z,9.74
2018-01-12T04:26:34.656Z,9.78
2018-01-12T04:27:15.275Z,9.69
2018-01-12T04:27:55.868Z,9.75
2018-01-12T04:28:36.367Z,9.72
2018-01-12T04:29:16.879Z,9.68
2018-01-12T04:29:57.421Z,9.61
2018-01-12T04:30:37.938Z,9.58
2018-01-12T04:31:18.425Z,9.74
2018-01-12T04:31:58.926Z,9.57
2018-01-12T04:32:39.552Z,9.35
2018-01-12T04:33:20.100Z,9.38
2018-01-12T04:34:00.637Z,9.42
2018-01-12T04:34:41.351Z,9.43
2018-01-12T04:35:21.782Z,9.47
2018-01-12T04:36:02.308Z,9.48
2018-01-12T04:36:42.858Z,9.53
2018-01-12T04:37:23.324Z,9.57
2018-01-12T04:38:03.876Z,9.6
2018-01-12T04:38:44.554Z,9.54
2018-01-12T04:39:25.105Z,9.76
2018-01-12T04:40:05.572Z,9.64
2018-01-12T04:40:46.104Z,9.57
2018-01-12T04:41:26.650Z,9.56
2018-01-12T04:42:07.172Z,9.54
2018-01-12T04:42:47.744Z,9.64
2018-01-12T04:43:28.269Z,9.5
2018-01-12T04:44:08.779Z,9.6
2018-01-12T04:44:49.294Z,9.51
2018-01-12T04:45:29.808Z,9.57
2018-01-12T04:46:10.362Z,9.39
2018-01-12T04:46:50.848Z,9.39
2018-01-12T04:47:31.446Z,9.56
2018-01-12T04:48:12.006Z,9.64
2018-01-12T04:48:52.564Z,9.74
2018-01-12T04:49:33.070Z,9.71
2018-01-12T04:50:13.631Z,9.36
2018-01-12T04:50:54.137Z,9.29
2018-01-12T04:51:34.696Z,9.35
2018-01-12T04:52:15.210Z,9.54
2018-01-12T04:52:55.697Z,9.5
2018-01-12T04:53:36.317Z,9.56
2018-01-12T04:54:16.845Z,9.57
2018-01-12T04:54:57.386Z,9.58
2018-01-12T04:55:37.923Z,9.53
2018-01-12T04:56:18.465Z,9.5
2018-01-12T04:56:59.004Z,9.5
2018-01-12T04:57:39.636Z,9.61
2018-01-12T04:58:20.147Z,9.61
2018-01-12T04:59:00.706Z,9.65
2018-01-12T04:59:41.344Z,9.66
2018-01-12T05:00:21.873Z,9.74
2018-01-12T05:01:02.469Z,9.75
2018-01-12T05:01:42.957Z,9.69
2018-01-12T05:02:23.547Z,9.72
2018-01-12T05:03:04.218Z,9.72
2018-01-12T05:03:44.758Z,9.72
2018-01-12T05:04:25.387Z,9.57
2018-01-12T05:05:05.890Z,9.68
2018-01-12T05:05:46.441Z,9.69
2018-01-12T05:06:26.956Z,9.71
2018-01-12T05:07:07.523Z,9.68
2018-01-12T05:07:48.040Z,9.6
2018-01-12T05:08:28.532Z,9.66
2018-01-12T05:09:09.146Z,9.65
2018-01-12T05:09:49.679Z,9.75
2018-01-12T05:10:30.183Z,9.74
2018-01-12T05:11:10.805Z,9.72
2018-01-12T05:11:51.310Z,9.75
2018-01-12T05:12:31.853Z,9.71
2018-01-12T05:13:12.378Z,9.66
2018-01-12T05:13:52.916Z,9.71
2018-01-12T05:14:33.438Z,9.68
2018-01-12T05:15:14.001Z,9.72
2018-01-12T05:15:54.464Z,9.71
2018-01-12T05:16:35.004Z,9.69
2018-01-12T05:17:15.581Z,9.66
2018-01-12T05:17:56.115Z,9.72
2018-01-12T05:18:36.661Z,9.72
2018-01-12T05:19:17.259Z,9.57
2018-01-12T05:19:57.757Z,9.6
2018-01-12T05:20:38.332Z,9.78
2018-01-12T05:21:18.861Z,9.68
2018-01-12T05:21:59.340Z,9.74
2018-01-12T05:22:39.951Z,9.74
2018-01-12T05:23:20.462Z,9.66
2018-01-12T05:24:00.993Z,9.64
2018-01-12T05:24:41.577Z,9.57
2018-01-12T05:25:22.185Z,9.64
2018-01-12T05:26:02.821Z,9.54
2018-01-12T05:26:43.303Z,9.53
2018-01-12T05:27:23.910Z,9.51
2018-01-12T05:28:04.530Z,9.39
2018-01-12T05:28:45.078Z,9.43
2018-01-12T05:29:25.594Z,9.51
2018-01-12T05:30:06.133Z,9.56
2018-01-12T05:30:46.649Z,9.5
2018-01-12T05:31:27.195Z,9.64
2018-01-12T05:32:07.702Z,9.66
2018-01-12T05:32:48.254Z,9.69
2018-01-12T05:33:28.798Z,9.64
2018-01-12T05:34:09.300Z,9.64
2018-01-12T05:34:49.847Z,9.69
2018-01-12T05:35:30.381Z,9.72
2018-01-12T05:36:10.911Z,9.75
2018-01-12T05:36:51.470Z,9.72
2018-01-12T05:37:32.010Z,9.66
2018-01-12T05:38:12.559Z,9.75
2018-01-12T05:38:53.095Z,9.74
2018-01-12T05:39:33.650Z,9.66
2018-01-12T05:40:14.194Z,9.68
2018-01-12T05:40:54.805Z,9.68
2018-01-12T05:41:35.340Z,9.75
2018-01-12T05:42:15.817Z,9.72
2018-01-12T05:42:56.368Z,9.71
2018-01-12T05:43:36.875Z,9.74
2018-01-12T05:44:17.595Z,9.79
2018-01-12T05:44:58.126Z,9.78
2018-01-12T05:45:38.641Z,9.72
2018-01-12T05:46:19.214Z,9.78
2018-01-12T05:46:59.753Z,9.78
2018-01-12T05:47:40.343Z,9.74
2018-01-12T05:48:20.899Z,9.71
2018-01-12T05:49:01.417Z,9.74
2018-01-12T05:49:41.929Z,9.78
2018-01-12T05:50:22.472Z,9.72
2018-01-12T05:51:03.010Z,9.83
2018-01-12T05:51:43.510Z,9.72
2018-01-12T05:52:24.061Z,9.71
2018-01-12T05:53:04.558Z,9.81
2018-01-12T05:53:45.291Z,9.83
2018-01-12T05:54:25.857Z,9.81
2018-01-12T05:55:06.415Z,9.69
2018-01-12T05:55:46.940Z,9.81
2018-01-12T05:56:27.496Z,9.78
2018-01-12T05:57:08.033Z,9.74
2018-01-12T05:57:48.563Z,9.79
2018-01-12T05:58:29.059Z,9.72
2018-01-12T05:59:09.595Z,9.79
2018-01-12T05:59:50.199Z,9.81
2018-01-12T06:00:30.666Z,9.79
2018-01-12T06:01:11.178Z,9.83
2018-01-12T06:01:51.727Z,9.75
2018-01-12T06:02:32.315Z,9.78
2018-01-12T06:03:12.830Z,9.76
2018-01-12T06:03:53.376Z,9.84
2018-01-12T06:04:33.926Z,9.81
2018-01-12T06:05:14.412Z,9.81
2018-01-12T06:05:54.970Z,9.81
2018-01-12T06:06:35.496Z,9.9
2018-01-12T06:07:16.022Z,9.86
2018-01-12T06:07:56.596Z,9.83
2018-01-12T06:08:37.202Z,9.83
2018-01-12T06:09:17.678Z,9.89
2018-01-12T06:09:58.294Z,9.84
2018-01-12T06:10:38.968Z,9.91
2018-01-12T06:11:19.401Z,9.9
2018-01-12T06:11:59.888Z,9.87
2018-01-12T06:12:40.511Z,9.78
2018-01-12T06:13:21.068Z,9.83
2018-01-12T06:14:01.580Z,9.9
2018-01-12T06:14:42.056Z,10.01
2018-01-12T06:15:22.640Z,9.84
2018-01-12T06:16:03.164Z,9.81
2018-01-12T06:16:43.689Z,9.91
2018-01-12T06:17:24.190Z,9.97
2018-01-12T06:18:04.740Z,9.93
2018-01-12T06:18:45.277Z,9.94
2018-01-12T06:19:25.838Z,10.01
2018-01-12T06:20:06.350Z,10.07
2018-01-12T06:20:47.020Z,10.02
2018-01-12T06:21:27.432Z,10.08
2018-01-12T06:22:07.932Z,10.08
2018-01-12T06:22:48.812Z,10.17
2018-01-12T06:23:29.346Z,10.09
2018-01-12T06:24:09.940Z,10.02
2018-01-12T06:24:50.458Z,10.05
2018-01-12T06:25:30.942Z,10.05
2018-01-12T06:26:11.497Z,10.09
2018-01-12T06:26:52.049Z,10.09
2018-01-12T06:27:32.590Z,10.01
2018-01-12T06:28:13.091Z,10.11
2018-01-12T06:28:53.645Z,10.11
2018-01-12T06:29:34.206Z,10.18
2018-01-12T06:30:14.732Z,10.05
2018-01-12T06:30:55.285Z,9.97
2018-01-12T06:31:35.800Z,10.01
2018-01-12T06:32:16.372Z,10.01
2018-01-12T06:32:56.940Z,10.08
2018-01-12T06:33:37.430Z,10.15
2018-01-12T06:34:17.971Z,10.29
2018-01-12T06:34:58.536Z,10.3
2018-01-12T06:35:39.021Z,10.34
2018-01-12T06:36:19.588Z,10.42
2018-01-12T06:37:00.199Z,10.34
2018-01-12T06:37:40.755Z,10.32
2018-01-12T06:38:21.516Z,10.33
2018-01-12T06:39:02.264Z,10.25
2018-01-12T06:39:42.850Z,10.17
2018-01-12T06:40:23.445Z,10.23
2018-01-12T06:41:03.994Z,10.11
2018-01-12T06:41:44.560Z,10.04
2018-01-12T06:42:25.101Z,9.97
2018-01-12T06:43:05.663Z,10.08
2018-01-12T06:43:46.170Z,10.12
2018-01-12T06:44:26.744Z,10.09
2018-01-12T06:45:07.243Z,10.09
2018-01-12T06:45:47.778Z,10.2
2018-01-12T06:46:28.272Z,10.17
2018-01-12T06:47:08.858Z,10.22
2018-01-12T06:47:49.416Z,10.11
2018-01-12T06:48:29.907Z,10.26
2018-01-12T06:49:10.502Z,10.15
2018-01-12T06:49:51.056Z,10.23
2018-01-12T06:50:31.705Z,10.15
2018-01-12T06:51:12.244Z,10.18
2018-01-12T06:51:52.745Z,10.3
2018-01-12T06:52:33.334Z,10.11
2018-01-12T06:53:13.869Z,10.07
2018-01-12T06:53:54.373Z,10.17
2018-01-12T06:54:34.992Z,10.15
2018-01-12T06:55:15.545Z,10.27
2018-01-12T06:55:56.045Z,10.17
2018-01-12T06:56:38.826Z,10.22
2018-01-12T06:58:26.762Z,10.3
2018-01-12T06:59:07.243Z,10.27
2018-01-12T06:59:47.778Z,10.29
2018-01-12T07:00:28.302Z,10.18
2018-01-12T07:01:09.503Z,10.18
2018-01-12T07:01:50.065Z,10.38
2018-01-12T07:02:30.550Z,10.55
2018-01-12T07:03:11.070Z,10.55
2018-01-12T07:03:51.721Z,10.71
2018-01-12T07:04:32.320Z,10.71
2018-01-12T07:05:12.800Z,10.92
2018-01-12T07:05:53.304Z,10.96
2018-01-12T07:06:33.832Z,10.78
2018-01-12T07:07:14.400Z,10.68
2018-01-12T07:07:54.890Z,10.76
2018-01-12T07:08:35.408Z,10.82
2018-01-12T07:09:15.961Z,10.82
2018-01-12T07:09:56.494Z,10.51
2018-01-12T07:11:44.651Z,10.56
2018-01-12T07:12:25.302Z,10.44
2018-01-12T07:13:05.808Z,10.38
2018-01-12T07:13:46.424Z,10.51
2018-01-12T07:14:28.844Z,10.48
2018-01-12T07:15:09.245Z,10.71
2018-01-12T07:15:49.817Z,10.61
2018-01-12T07:16:30.347Z,10.81
2018-01-12T07:17:10.872Z,10.74
2018-01-12T07:17:51.362Z,10.52
2018-01-12T07:18:31.929Z,10.51
2018-01-12T07:19:12.403Z,10.4
2018-01-12T07:19:52.964Z,10.53
2018-01-12T07:20:33.477Z,10.79
2018-01-12T07:21:14.115Z,10.82
2018-01-12T07:21:54.551Z,10.7
2018-01-12T07:22:35.167Z,10.71
2018-01-12T07:23:15.621Z,10.56
2018-01-12T07:23:56.203Z,10.64
2018-01-12T07:24:36.717Z,10.56
2018-01-12T07:25:17.281Z,10.53
2018-01-12T07:25:57.860Z,10.52
2018-01-12T07:26:38.411Z,10.42
2018-01-12T07:27:18.913Z,10.42
2018-01-12T07:27:59.432Z,10.4
2018-01-12T07:28:39.988Z,10.4
2018-01-12T07:29:20.572Z,10.79
2018-01-12T07:30:01.155Z,11.19
2018-01-12T07:30:41.678Z,11.04
2018-01-12T07:31:22.165Z,10.97
2018-01-12T07:32:02.696Z,10.82
2018-01-12T07:32:43.226Z,10.82
2018-01-12T07:33:23.776Z,10.86
2018-01-12T07:34:04.326Z,10.7
2018-01-12T07:34:44.988Z,10.48
2018-01-12T07:35:25.454Z,10.38
2018-01-12T07:36:06.003Z,10.33
2018-01-12T07:36:46.546Z,10.36
2018-01-12T07:37:28.016Z,10.38
2018-01-12T07:38:08.605Z,10.18
2018-01-12T07:38:49.119Z,10.07
2018-01-12T07:39:29.718Z,10.12
2018-01-12T07:40:10.224Z,10.14
2018-01-12T07:40:50.816Z,10.18
2018-01-12T07:41:31.321Z,10.18
2018-01-12T07:42:11.862Z,10.23
2018-01-12T07:42:52.389Z,10.22
2018-01-12T07:43:32.920Z,10.17
2018-01-12T07:44:13.484Z,10.22
2018-01-12T07:44:53.956Z,10.23
2018-01-12T07:45:34.525Z,10.36
2018-01-12T07:46:15.105Z,10.29
2018-01-12T07:46:55.618Z,10.29
2018-01-12T07:47:36.168Z,10.3
2018-01-12T07:48:16.705Z,10.36
2018-01-12T07:48:57.311Z,10.36
2018-01-12T07:49:37.827Z,10.33
2018-01-12T07:50:18.376Z,10.33
2018-01-12T07:50:59.158Z,10.29
2018-01-12T07:51:39.637Z,10.26
2018-01-12T07:52:20.163Z,10.2
2018-01-12T07:53:00.739Z,10.05
2018-01-12T07:53:41.249Z,10.01
2018-01-12T07:54:21.816Z,10.15
2018-01-12T07:55:02.419Z,10.23
2018-01-12T07:55:42.882Z,10.42
2018-01-12T07:56:23.395Z,10.51
2018-01-12T07:57:03.981Z,10.36
2018-01-12T07:57:44.589Z,10.27
2018-01-12T07:58:25.066Z,10.02
2018-01-12T07:59:05.649Z,10.07
2018-01-12T07:59:46.212Z,10.17
2018-01-12T08:00:26.743Z,10.12
2018-01-12T08:01:07.302Z,9.99
2018-01-12T08:01:48.002Z,9.94
2018-01-12T08:02:28.557Z,10.04
2018-01-12T08:03:17.255Z,10.18
2018-01-12T08:03:58.159Z,10.22
2018-01-12T08:04:38.693Z,10.23
2018-01-12T08:05:19.302Z,10.41
2018-01-12T08:05:59.842Z,10.68
2018-01-12T08:06:42.041Z,11.09
2018-01-12T08:07:22.602Z,10.56
2018-01-12T08:08:03.097Z,10.26
2018-01-12T08:08:43.663Z,10.63
2018-01-12T08:09:24.191Z,10.51
2018-01-12T08:10:04.731Z,10.55
2018-01-12T08:10:45.271Z,10.73
2018-01-12T08:11:25.844Z,10.74
2018-01-12T08:12:06.384Z,10.94
2018-01-12T08:12:46.904Z,10.92
2018-01-12T08:13:27.447Z,10.66
2018-01-12T08:14:07.956Z,10.4
2018-01-12T08:14:48.546Z,10.36
2018-01-12T08:15:29.052Z,10.41
2018-01-12T08:16:09.635Z,10.45
2018-01-12T08:16:50.141Z,10.55
2018-01-12T08:17:30.700Z,10.47
2018-01-12T08:18:11.220Z,10.55
2018-01-12T08:18:51.781Z,10.63
2018-01-12T08:19:32.357Z,10.64
2018-01-12T08:20:12.877Z,10.68
2018-01-12T08:20:53.412Z,10.63
2018-01-12T08:21:33.968Z,10.61
2018-01-12T08:22:14.484Z,10.36
2018-01-12T08:22:55.010Z,10.51
2018-01-12T08:23:35.567Z,10.89
2018-01-12T08:24:16.123Z,10.76
2018-01-12T08:24:56.711Z,10.89
2018-01-12T08:25:37.296Z,10.71
2018-01-12T08:26:17.771Z,10.44
2018-01-12T08:26:58.423Z,10.17
2018-01-12T08:27:38.941Z,10.04
2018-01-12T08:28:19.594Z,9.81
2018-01-12T08:29:00.121Z,9.99
2018-01-12T08:29:40.608Z,10.18
2018-01-12T08:30:21.124Z,10.17
2018-01-12T08:31:01.642Z,9.96
2018-01-12T08:31:42.194Z,10.2
2018-01-12T08:32:22.761Z,10.25
2018-01-12T08:33:03.263Z,10.59
2018-01-12T08:33:43.769Z,10.92
2018-01-12T08:34:24.267Z,11.07
2018-01-12T08:35:04.849Z,10.94
2018-01-12T08:35:45.353Z,10.91
2018-01-12T08:36:25.880Z,10.6
2018-01-12T08:37:06.455Z,10.78
2018-01-12T08:37:46.986Z,10.82
2018-01-12T08:38:27.470Z,10.82
2018-01-12T08:39:08.001Z,10.55
2018-01-12T08:39:48.570Z,10.52
2018-01-12T08:40:29.112Z,10.59
2018-01-12T08:41:09.653Z,10.63
2018-01-12T08:41:50.334Z,10.56
2018-01-12T08:42:30.917Z,10.63
2018-01-12T08:43:11.434Z,10.51
2018-01-12T08:43:52.020Z,10.55
2018-01-12T08:44:32.712Z,10.55
2018-01-12T08:45:13.315Z,10.41
2018-01-12T08:45:53.810Z,10.34
2018-01-12T08:46:34.352Z,10.44
2018-01-12T08:47:14.905Z,10.17
2018-01-12T08:47:55.472Z,10.15
2018-01-12T08:48:35.971Z,10.66
2018-01-12T08:49:16.472Z,11.03
2018-01-12T08:49:57.038Z,11.43
2018-01-12T08:50:37.643Z,11.03
2018-01-12T08:51:18.471Z,11.25
2018-01-12T08:51:58.920Z,11.49